sensor_id;sensor_type;location;lat;lon;timestamp;P1;durP1;ratioP1;P2;durP2;ratioP2
21705;SDS011;11014;53.076;18.208;2022-10-16T00:01:48;50.15;;;33.47;;
21705;SDS011;11014;53.076;18.208;2022-10-16T00:04:16;51.33;;;34.03;;
21705;SDS011;11014;53.076;18.208;2022-10-16T00:06:45;48.95;;;33.45;;
21705;SDS011;11014;53.076;18.208;2022-10-16T00:09:14;51.15;;;31.83;;
21705;SDS011;11014;53.076;18.208;2022-10-16T00:11:42;48.88;;;33.10;;
21705;SDS011;11014;53.076;18.208;2022-10-16T00:14:12;49.15;;;32.80;;
21705;SDS011;11014;53.076;18.208;2022-10-16T00:16:42;53.05;;;34.70;;
21705;SDS011;11014;53.076;18.208;2022-10-16T00:19:11;48.95;;;33.53;;
21705;SDS011;11014;53.076;18.208;2022-10-16T00:21:40;47.80;;;33.30;;
21705;SDS011;11014;53.076;18.208;2022-10-16T00:24:26;51.13;;;33.10;;
21705;SDS011;11014;53.076;18.208;2022-10-16T00:26:55;53.90;;;34.58;;
21705;SDS011;11014;53.076;18.208;2022-10-16T00:29:24;51.90;;;34.00;;
21705;SDS011;11014;53.076;18.208;2022-10-16T00:31:52;46.85;;;31.77;;
21705;SDS011;11014;53.076;18.208;2022-10-16T00:34:20;56.35;;;33.80;;
21705;SDS011;11014;53.076;18.208;2022-10-16T00:36:49;48.83;;;32.53;;
21705;SDS011;11014;53.076;18.208;2022-10-16T00:39:17;51.25;;;33.30;;
21705;SDS011;11014;53.076;18.208;2022-10-16T00:41:47;48.17;;;32.97;;
21705;SDS011;11014;53.076;18.208;2022-10-16T00:47:22;44.72;;;31.58;;
21705;SDS011;11014;53.076;18.208;2022-10-16T00:49:58;47.35;;;32.42;;
21705;SDS011;11014;53.076;18.208;2022-10-16T00:52:47;48.55;;;32.05;;
21705;SDS011;11014;53.076;18.208;2022-10-16T00:55:18;47.33;;;30.97;;
21705;SDS011;11014;53.076;18.208;2022-10-16T00:57:47;46.05;;;30.55;;
21705;SDS011;11014;53.076;18.208;2022-10-16T01:00:19;46.65;;;31.50;;
21705;SDS011;11014;53.076;18.208;2022-10-16T01:02:54;44.97;;;31.30;;
21705;SDS011;11014;53.076;18.208;2022-10-16T01:05:26;47.85;;;31.85;;
21705;SDS011;11014;53.076;18.208;2022-10-16T01:08:13;45.40;;;29.85;;
21705;SDS011;11014;53.076;18.208;2022-10-16T01:10:59;44.03;;;28.58;;
21705;SDS011;11014;53.076;18.208;2022-10-16T01:13:53;41.38;;;29.17;;
21705;SDS011;11014;53.076;18.208;2022-10-16T01:16:29;41.60;;;28.73;;
21705;SDS011;11014;53.076;18.208;2022-10-16T01:19:31;43.80;;;29.25;;
21705;SDS011;11014;53.076;18.208;2022-10-16T01:22:18;44.63;;;29.85;;
21705;SDS011;11014;53.076;18.208;2022-10-16T01:24:49;42.85;;;30.02;;
21705;SDS011;11014;53.076;18.208;2022-10-16T01:27:21;41.30;;;28.55;;
21705;SDS011;11014;53.076;18.208;2022-10-16T01:29:56;41.17;;;29.15;;
21705;SDS011;11014;53.076;18.208;2022-10-16T01:32:40;43.67;;;28.98;;
21705;SDS011;11014;53.076;18.208;2022-10-16T01:35:25;40.20;;;28.90;;
21705;SDS011;11014;53.076;18.208;2022-10-16T01:38:02;44.92;;;28.52;;
21705;SDS011;11014;53.076;18.208;2022-10-16T01:40:46;43.08;;;29.90;;
21705;SDS011;11014;53.076;18.208;2022-10-16T01:43:20;40.80;;;28.83;;
21705;SDS011;11014;53.076;18.208;2022-10-16T01:45:54;41.65;;;29.45;;
21705;SDS011;11014;53.076;18.208;2022-10-16T01:48:23;45.00;;;30.13;;
21705;SDS011;11014;53.076;18.208;2022-10-16T01:51:01;42.92;;;29.65;;
21705;SDS011;11014;53.076;18.208;2022-10-16T01:53:33;41.17;;;28.58;;
21705;SDS011;11014;53.076;18.208;2022-10-16T01:56:07;43.58;;;30.13;;
21705;SDS011;11014;53.076;18.208;2022-10-16T01:58:40;42.97;;;29.45;;
21705;SDS011;11014;53.076;18.208;2022-10-16T02:01:14;46.30;;;29.90;;
21705;SDS011;11014;53.076;18.208;2022-10-16T02:03:48;43.80;;;29.45;;
21705;SDS011;11014;53.076;18.208;2022-10-16T02:06:19;44.15;;;29.85;;
21705;SDS011;11014;53.076;18.208;2022-10-16T02:08:48;46.30;;;29.23;;
21705;SDS011;11014;53.076;18.208;2022-10-16T02:11:17;44.78;;;29.95;;
21705;SDS011;11014;53.076;18.208;2022-10-16T02:13:46;41.97;;;29.83;;
21705;SDS011;11014;53.076;18.208;2022-10-16T02:16:19;43.38;;;30.92;;
21705;SDS011;11014;53.076;18.208;2022-10-16T02:18:48;45.63;;;31.15;;
21705;SDS011;11014;53.076;18.208;2022-10-16T02:21:27;49.05;;;31.73;;
21705;SDS011;11014;53.076;18.208;2022-10-16T02:24:19;44.53;;;30.52;;
21705;SDS011;11014;53.076;18.208;2022-10-16T02:27:25;45.33;;;30.20;;
21705;SDS011;11014;53.076;18.208;2022-10-16T02:30:24;45.40;;;30.48;;
21705;SDS011;11014;53.076;18.208;2022-10-16T02:32:53;42.15;;;30.25;;
21705;SDS011;11014;53.076;18.208;2022-10-16T02:35:24;49.22;;;31.08;;
21705;SDS011;11014;53.076;18.208;2022-10-16T02:37:55;45.58;;;30.55;;
21705;SDS011;11014;53.076;18.208;2022-10-16T02:40:25;47.97;;;30.52;;
21705;SDS011;11014;53.076;18.208;2022-10-16T02:42:55;44.88;;;29.92;;
21705;SDS011;11014;53.076;18.208;2022-10-16T02:45:24;47.67;;;31.60;;
21705;SDS011;11014;53.076;18.208;2022-10-16T02:47:52;47.47;;;31.05;;
21705;SDS011;11014;53.076;18.208;2022-10-16T02:50:21;46.45;;;30.38;;
21705;SDS011;11014;53.076;18.208;2022-10-16T02:52:52;45.08;;;30.02;;
21705;SDS011;11014;53.076;18.208;2022-10-16T02:55:21;43.03;;;29.58;;
21705;SDS011;11014;53.076;18.208;2022-10-16T02:57:50;44.95;;;30.65;;
21705;SDS011;11014;53.076;18.208;2022-10-16T03:00:18;45.00;;;30.90;;
21705;SDS011;11014;53.076;18.208;2022-10-16T03:02:47;43.00;;;30.55;;
21705;SDS011;11014;53.076;18.208;2022-10-16T03:05:16;44.88;;;31.25;;
21705;SDS011;11014;53.076;18.208;2022-10-16T03:07:45;44.08;;;30.23;;
21705;SDS011;11014;53.076;18.208;2022-10-16T03:10:13;44.42;;;29.85;;
21705;SDS011;11014;53.076;18.208;2022-10-16T03:12:42;42.13;;;29.65;;
21705;SDS011;11014;53.076;18.208;2022-10-16T03:15:10;43.47;;;29.55;;
21705;SDS011;11014;53.076;18.208;2022-10-16T03:17:39;41.25;;;29.40;;
21705;SDS011;11014;53.076;18.208;2022-10-16T03:20:07;39.70;;;29.85;;
21705;SDS011;11014;53.076;18.208;2022-10-16T03:22:36;39.67;;;28.65;;
21705;SDS011;11014;53.076;18.208;2022-10-16T03:25:04;42.55;;;28.35;;
21705;SDS011;11014;53.076;18.208;2022-10-16T03:27:33;43.30;;;29.38;;
21705;SDS011;11014;53.076;18.208;2022-10-16T03:30:02;39.17;;;28.40;;
21705;SDS011;11014;53.076;18.208;2022-10-16T03:32:31;44.97;;;29.55;;
21705;SDS011;11014;53.076;18.208;2022-10-16T03:35:00;38.38;;;28.08;;
21705;SDS011;11014;53.076;18.208;2022-10-16T03:37:28;41.45;;;28.52;;
21705;SDS011;11014;53.076;18.208;2022-10-16T03:39:57;37.97;;;27.83;;
21705;SDS011;11014;53.076;18.208;2022-10-16T03:42:25;42.67;;;29.00;;
21705;SDS011;11014;53.076;18.208;2022-10-16T03:44:54;38.28;;;27.23;;
21705;SDS011;11014;53.076;18.208;2022-10-16T03:47:22;38.40;;;28.48;;
21705;SDS011;11014;53.076;18.208;2022-10-16T03:49:52;40.85;;;28.50;;
21705;SDS011;11014;53.076;18.208;2022-10-16T03:52:21;41.85;;;27.67;;
21705;SDS011;11014;53.076;18.208;2022-10-16T03:54:49;38.45;;;27.15;;
21705;SDS011;11014;53.076;18.208;2022-10-16T03:57:18;42.05;;;27.25;;
21705;SDS011;11014;53.076;18.208;2022-10-16T03:59:46;41.13;;;27.67;;
21705;SDS011;11014;53.076;18.208;2022-10-16T04:02:17;41.47;;;27.77;;
21705;SDS011;11014;53.076;18.208;2022-10-16T04:04:46;39.25;;;27.77;;
21705;SDS011;11014;53.076;18.208;2022-10-16T04:07:14;39.00;;;27.13;;
21705;SDS011;11014;53.076;18.208;2022-10-16T04:09:43;39.25;;;26.80;;
21705;SDS011;11014;53.076;18.208;2022-10-16T04:12:11;37.15;;;26.52;;
21705;SDS011;11014;53.076;18.208;2022-10-16T04:14:40;43.67;;;27.02;;
21705;SDS011;11014;53.076;18.208;2022-10-16T04:17:09;38.95;;;27.55;;
21705;SDS011;11014;53.076;18.208;2022-10-16T04:19:37;37.35;;;26.52;;
21705;SDS011;11014;53.076;18.208;2022-10-16T04:22:05;37.67;;;27.27;;
21705;SDS011;11014;53.076;18.208;2022-10-16T04:24:34;43.30;;;30.00;;
21705;SDS011;11014;53.076;18.208;2022-10-16T04:27:03;36.67;;;26.65;;
21705;SDS011;11014;53.076;18.208;2022-10-16T04:29:31;35.20;;;25.92;;
21705;SDS011;11014;53.076;18.208;2022-10-16T04:31:59;39.92;;;27.30;;
21705;SDS011;11014;53.076;18.208;2022-10-16T04:34:28;37.38;;;26.95;;
21705;SDS011;11014;53.076;18.208;2022-10-16T04:36:57;38.88;;;26.88;;
21705;SDS011;11014;53.076;18.208;2022-10-16T04:39:25;37.90;;;27.27;;
21705;SDS011;11014;53.076;18.208;2022-10-16T04:41:54;35.03;;;25.95;;
21705;SDS011;11014;53.076;18.208;2022-10-16T04:44:22;36.67;;;26.60;;
21705;SDS011;11014;53.076;18.208;2022-10-16T04:46:51;36.58;;;26.30;;
21705;SDS011;11014;53.076;18.208;2022-10-16T04:49:19;41.00;;;27.30;;
21705;SDS011;11014;53.076;18.208;2022-10-16T04:51:48;37.63;;;26.67;;
21705;SDS011;11014;53.076;18.208;2022-10-16T04:54:16;38.50;;;27.55;;
21705;SDS011;11014;53.076;18.208;2022-10-16T04:56:45;37.42;;;25.98;;
21705;SDS011;11014;53.076;18.208;2022-10-16T04:59:19;38.90;;;26.38;;
21705;SDS011;11014;53.076;18.208;2022-10-16T05:01:48;36.55;;;26.55;;
21705;SDS011;11014;53.076;18.208;2022-10-16T05:04:17;37.33;;;25.75;;
21705;SDS011;11014;53.076;18.208;2022-10-16T05:06:45;34.53;;;25.55;;
21705;SDS011;11014;53.076;18.208;2022-10-16T05:09:13;41.22;;;26.77;;
21705;SDS011;11014;53.076;18.208;2022-10-16T05:11:42;36.03;;;25.85;;
21705;SDS011;11014;53.076;18.208;2022-10-16T05:14:11;37.85;;;25.02;;
21705;SDS011;11014;53.076;18.208;2022-10-16T05:16:39;37.38;;;25.75;;
21705;SDS011;11014;53.076;18.208;2022-10-16T05:19:08;34.67;;;25.15;;
21705;SDS011;11014;53.076;18.208;2022-10-16T05:21:56;35.95;;;24.75;;
21705;SDS011;11014;53.076;18.208;2022-10-16T05:24:25;35.80;;;25.52;;
21705;SDS011;11014;53.076;18.208;2022-10-16T05:26:54;34.90;;;25.08;;
21705;SDS011;11014;53.076;18.208;2022-10-16T05:29:23;33.53;;;25.73;;
21705;SDS011;11014;53.076;18.208;2022-10-16T05:31:52;33.80;;;25.10;;
21705;SDS011;11014;53.076;18.208;2022-10-16T05:34:21;33.92;;;25.02;;
21705;SDS011;11014;53.076;18.208;2022-10-16T05:36:50;34.30;;;25.50;;
21705;SDS011;11014;53.076;18.208;2022-10-16T05:39:19;36.22;;;25.25;;
21705;SDS011;11014;53.076;18.208;2022-10-16T05:41:49;36.38;;;25.65;;
21705;SDS011;11014;53.076;18.208;2022-10-16T05:44:17;37.10;;;25.60;;
21705;SDS011;11014;53.076;18.208;2022-10-16T05:46:46;34.25;;;25.15;;
21705;SDS011;11014;53.076;18.208;2022-10-16T05:49:15;35.88;;;25.55;;
21705;SDS011;11014;53.076;18.208;2022-10-16T05:51:43;32.47;;;24.55;;
21705;SDS011;11014;53.076;18.208;2022-10-16T05:54:12;39.17;;;24.73;;
21705;SDS011;11014;53.076;18.208;2022-10-16T05:56:41;34.35;;;25.15;;
21705;SDS011;11014;53.076;18.208;2022-10-16T05:59:09;34.22;;;25.02;;
21705;SDS011;11014;53.076;18.208;2022-10-16T06:01:38;33.83;;;24.15;;
21705;SDS011;11014;53.076;18.208;2022-10-16T06:04:08;36.97;;;24.77;;
21705;SDS011;11014;53.076;18.208;2022-10-16T06:06:38;31.33;;;24.33;;
21705;SDS011;11014;53.076;18.208;2022-10-16T06:09:06;33.90;;;24.23;;
21705;SDS011;11014;53.076;18.208;2022-10-16T06:11:35;32.55;;;23.65;;
21705;SDS011;11014;53.076;18.208;2022-10-16T06:14:04;31.35;;;23.02;;
21705;SDS011;11014;53.076;18.208;2022-10-16T06:16:36;29.25;;;23.17;;
21705;SDS011;11014;53.076;18.208;2022-10-16T06:19:09;30.17;;;23.13;;
21705;SDS011;11014;53.076;18.208;2022-10-16T06:21:37;31.92;;;23.55;;
21705;SDS011;11014;53.076;18.208;2022-10-16T06:24:06;31.67;;;22.35;;
21705;SDS011;11014;53.076;18.208;2022-10-16T06:26:35;29.98;;;22.35;;
21705;SDS011;11014;53.076;18.208;2022-10-16T06:29:03;30.95;;;21.40;;
21705;SDS011;11014;53.076;18.208;2022-10-16T06:31:32;30.50;;;21.83;;
21705;SDS011;11014;53.076;18.208;2022-10-16T06:34:01;26.70;;;20.02;;
21705;SDS011;11014;53.076;18.208;2022-10-16T06:36:32;27.38;;;20.77;;
21705;SDS011;11014;53.076;18.208;2022-10-16T06:39:04;27.50;;;20.63;;
21705;SDS011;11014;53.076;18.208;2022-10-16T06:41:33;25.63;;;19.88;;
21705;SDS011;11014;53.076;18.208;2022-10-16T06:46:43;24.52;;;18.98;;
21705;SDS011;11014;53.076;18.208;2022-10-16T06:49:12;25.67;;;19.77;;
21705;SDS011;11014;53.076;18.208;2022-10-16T06:51:41;25.05;;;19.33;;
21705;SDS011;11014;53.076;18.208;2022-10-16T06:54:10;22.27;;;18.88;;
21705;SDS011;11014;53.076;18.208;2022-10-16T06:56:39;24.80;;;19.02;;
21705;SDS011;11014;53.076;18.208;2022-10-16T06:59:07;23.75;;;18.10;;
21705;SDS011;11014;53.076;18.208;2022-10-16T07:01:35;24.38;;;18.35;;
21705;SDS011;11014;53.076;18.208;2022-10-16T07:04:04;21.60;;;17.65;;
21705;SDS011;11014;53.076;18.208;2022-10-16T07:06:33;21.95;;;17.95;;
21705;SDS011;11014;53.076;18.208;2022-10-16T07:09:03;22.92;;;17.42;;
21705;SDS011;11014;53.076;18.208;2022-10-16T07:11:34;19.97;;;17.03;;
21705;SDS011;11014;53.076;18.208;2022-10-16T07:14:04;22.42;;;17.67;;
21705;SDS011;11014;53.076;18.208;2022-10-16T07:16:33;22.30;;;17.45;;
21705;SDS011;11014;53.076;18.208;2022-10-16T07:19:02;20.48;;;16.90;;
21705;SDS011;11014;53.076;18.208;2022-10-16T07:21:31;22.55;;;17.30;;
21705;SDS011;11014;53.076;18.208;2022-10-16T07:24:05;20.83;;;17.23;;
21705;SDS011;11014;53.076;18.208;2022-10-16T07:26:35;22.38;;;16.17;;
21705;SDS011;11014;53.076;18.208;2022-10-16T07:29:11;19.80;;;15.93;;
21705;SDS011;11014;53.076;18.208;2022-10-16T07:31:41;20.17;;;16.02;;
21705;SDS011;11014;53.076;18.208;2022-10-16T07:34:12;20.42;;;14.75;;
21705;SDS011;11014;53.076;18.208;2022-10-16T07:36:42;17.58;;;14.57;;
21705;SDS011;11014;53.076;18.208;2022-10-16T07:39:11;17.73;;;14.40;;
21705;SDS011;11014;53.076;18.208;2022-10-16T07:41:39;18.95;;;14.80;;
21705;SDS011;11014;53.076;18.208;2022-10-16T07:44:08;20.00;;;13.52;;
21705;SDS011;11014;53.076;18.208;2022-10-16T07:46:36;16.25;;;12.60;;
21705;SDS011;11014;53.076;18.208;2022-10-16T07:49:05;17.05;;;13.18;;
21705;SDS011;11014;53.076;18.208;2022-10-16T07:51:34;15.93;;;12.98;;
21705;SDS011;11014;53.076;18.208;2022-10-16T07:54:02;17.55;;;12.80;;
21705;SDS011;11014;53.076;18.208;2022-10-16T07:56:31;15.80;;;12.68;;
21705;SDS011;11014;53.076;18.208;2022-10-16T07:59:01;16.33;;;12.73;;
21705;SDS011;11014;53.076;18.208;2022-10-16T08:01:29;17.33;;;13.20;;
21705;SDS011;11014;53.076;18.208;2022-10-16T08:03:58;15.07;;;12.90;;
21705;SDS011;11014;53.076;18.208;2022-10-16T08:06:27;13.02;;;11.63;;
21705;SDS011;11014;53.076;18.208;2022-10-16T08:08:56;13.98;;;12.13;;
21705;SDS011;11014;53.076;18.208;2022-10-16T08:11:24;14.00;;;12.38;;
21705;SDS011;11014;53.076;18.208;2022-10-16T08:16:47;14.23;;;11.95;;
21705;SDS011;11014;53.076;18.208;2022-10-16T08:19:15;14.38;;;12.88;;
21705;SDS011;11014;53.076;18.208;2022-10-16T08:21:46;17.15;;;12.93;;
21705;SDS011;11014;53.076;18.208;2022-10-16T08:24:18;15.25;;;13.65;;
21705;SDS011;11014;53.076;18.208;2022-10-16T08:26:46;14.38;;;12.52;;
21705;SDS011;11014;53.076;18.208;2022-10-16T08:29:15;15.70;;;12.90;;
21705;SDS011;11014;53.076;18.208;2022-10-16T08:31:44;15.85;;;12.70;;
21705;SDS011;11014;53.076;18.208;2022-10-16T08:34:12;12.88;;;11.55;;
21705;SDS011;11014;53.076;18.208;2022-10-16T08:36:40;14.48;;;11.68;;
21705;SDS011;11014;53.076;18.208;2022-10-16T08:39:09;12.40;;;11.10;;
21705;SDS011;11014;53.076;18.208;2022-10-16T08:41:57;14.70;;;11.60;;
21705;SDS011;11014;53.076;18.208;2022-10-16T08:48:27;12.80;;;10.98;;
21705;SDS011;11014;53.076;18.208;2022-10-16T08:52:04;14.40;;;12.05;;
21705;SDS011;11014;53.076;18.208;2022-10-16T08:55:45;12.07;;;10.82;;
21705;SDS011;11014;53.076;18.208;2022-10-16T08:59:46;14.48;;;10.48;;
21705;SDS011;11014;53.076;18.208;2022-10-16T09:30:42;14.05;;;9.95;;
21705;SDS011;11014;53.076;18.208;2022-10-16T09:33:35;11.43;;;9.35;;
21705;SDS011;11014;53.076;18.208;2022-10-16T09:36:13;13.40;;;9.23;;
21705;SDS011;11014;53.076;18.208;2022-10-16T09:39:01;10.05;;;8.68;;
21705;SDS011;11014;53.076;18.208;2022-10-16T09:41:35;11.57;;;9.73;;
21705;SDS011;11014;53.076;18.208;2022-10-16T09:44:30;11.18;;;8.82;;
21705;SDS011;11014;53.076;18.208;2022-10-16T09:47:01;12.02;;;8.55;;
21705;SDS011;11014;53.076;18.208;2022-10-16T09:49:34;10.63;;;8.45;;
21705;SDS011;11014;53.076;18.208;2022-10-16T09:52:12;9.32;;;8.43;;
21705;SDS011;11014;53.076;18.208;2022-10-16T09:54:54;10.68;;;7.93;;
21705;SDS011;11014;53.076;18.208;2022-10-16T09:57:28;9.38;;;7.50;;
21705;SDS011;11014;53.076;18.208;2022-10-16T09:59:59;8.55;;;7.15;;
21705;SDS011;11014;53.076;18.208;2022-10-16T10:57:09;7.80;;;6.78;;
21705;SDS011;11014;53.076;18.208;2022-10-16T11:05:42;10.35;;;7.15;;
21705;SDS011;11014;53.076;18.208;2022-10-16T11:08:17;8.25;;;6.63;;
21705;SDS011;11014;53.076;18.208;2022-10-16T11:14:02;7.50;;;6.70;;
21705;SDS011;11014;53.076;18.208;2022-10-16T11:20:34;7.60;;;6.78;;
21705;SDS011;11014;53.076;18.208;2022-10-16T11:26:05;7.38;;;6.32;;
21705;SDS011;11014;53.076;18.208;2022-10-16T11:29:14;8.05;;;6.47;;
21705;SDS011;11014;53.076;18.208;2022-10-16T11:31:49;9.50;;;6.82;;
21705;SDS011;11014;53.076;18.208;2022-10-16T11:35:00;6.55;;;5.60;;
21705;SDS011;11014;53.076;18.208;2022-10-16T11:37:48;8.23;;;6.53;;
21705;SDS011;11014;53.076;18.208;2022-10-16T11:40:32;7.25;;;6.55;;
21705;SDS011;11014;53.076;18.208;2022-10-16T11:46:18;7.00;;;5.82;;
21705;SDS011;11014;53.076;18.208;2022-10-16T11:49:33;6.22;;;5.53;;
21705;SDS011;11014;53.076;18.208;2022-10-16T11:52:17;6.55;;;5.95;;
21705;SDS011;11014;53.076;18.208;2022-10-16T11:54:55;6.95;;;6.13;;
21705;SDS011;11014;53.076;18.208;2022-10-16T12:00:27;6.43;;;5.70;;
21705;SDS011;11014;53.076;18.208;2022-10-16T12:08:51;7.65;;;6.50;;
21705;SDS011;11014;53.076;18.208;2022-10-16T12:22:51;7.80;;;6.95;;
21705;SDS011;11014;53.076;18.208;2022-10-16T12:25:25;8.15;;;7.05;;
21705;SDS011;11014;53.076;18.208;2022-10-16T12:28:03;7.80;;;6.90;;
21705;SDS011;11014;53.076;18.208;2022-10-16T12:30:57;8.60;;;7.40;;
21705;SDS011;11014;53.076;18.208;2022-10-16T12:33:34;7.68;;;6.85;;
21705;SDS011;11014;53.076;18.208;2022-10-16T12:36:08;8.45;;;6.70;;
21705;SDS011;11014;53.076;18.208;2022-10-16T12:47:03;8.23;;;7.00;;
21705;SDS011;11014;53.076;18.208;2022-10-16T12:49:36;8.47;;;7.07;;
21705;SDS011;11014;53.076;18.208;2022-10-16T12:52:22;7.82;;;6.68;;
21705;SDS011;11014;53.076;18.208;2022-10-16T12:54:57;9.50;;;7.05;;
21705;SDS011;11014;53.076;18.208;2022-10-16T13:20:00;7.43;;;6.72;;
21705;SDS011;11014;53.076;18.208;2022-10-16T13:26:53;7.40;;;6.50;;
21705;SDS011;11014;53.076;18.208;2022-10-16T13:29:32;7.60;;;6.72;;
21705;SDS011;11014;53.076;18.208;2022-10-16T13:32:14;13.48;;;6.53;;
21705;SDS011;11014;53.076;18.208;2022-10-16T13:35:01;7.50;;;6.60;;
21705;SDS011;11014;53.076;18.208;2022-10-16T13:37:49;9.68;;;6.93;;
21705;SDS011;11014;53.076;18.208;2022-10-16T13:40:28;7.72;;;6.88;;
21705;SDS011;11014;53.076;18.208;2022-10-16T13:43:49;7.43;;;6.72;;
21705;SDS011;11014;53.076;18.208;2022-10-16T13:46:59;7.30;;;6.55;;
21705;SDS011;11014;53.076;18.208;2022-10-16T13:49:32;7.35;;;6.65;;
21705;SDS011;11014;53.076;18.208;2022-10-16T13:52:00;8.07;;;7.05;;
21705;SDS011;11014;53.076;18.208;2022-10-16T13:54:33;8.95;;;7.20;;
21705;SDS011;11014;53.076;18.208;2022-10-16T13:57:05;8.27;;;7.47;;
21705;SDS011;11014;53.076;18.208;2022-10-16T13:59:54;7.70;;;6.90;;
21705;SDS011;11014;53.076;18.208;2022-10-16T14:02:37;7.72;;;6.90;;
21705;SDS011;11014;53.076;18.208;2022-10-16T14:05:08;8.25;;;6.45;;
21705;SDS011;11014;53.076;18.208;2022-10-16T14:07:41;8.43;;;7.22;;
21705;SDS011;11014;53.076;18.208;2022-10-16T14:10:18;8.20;;;7.35;;
21705;SDS011;11014;53.076;18.208;2022-10-16T14:12:55;10.65;;;7.22;;
21705;SDS011;11014;53.076;18.208;2022-10-16T14:15:30;7.05;;;6.45;;
21705;SDS011;11014;53.076;18.208;2022-10-16T14:18:05;7.18;;;6.50;;
21705;SDS011;11014;53.076;18.208;2022-10-16T14:20:38;10.25;;;6.70;;
21705;SDS011;11014;53.076;18.208;2022-10-16T14:23:23;7.82;;;6.70;;
21705;SDS011;11014;53.076;18.208;2022-10-16T14:28:39;8.10;;;7.10;;
21705;SDS011;11014;53.076;18.208;2022-10-16T14:31:27;15.55;;;8.52;;
21705;SDS011;11014;53.076;18.208;2022-10-16T14:34:02;10.98;;;7.18;;
21705;SDS011;11014;53.076;18.208;2022-10-16T14:36:33;8.65;;;6.82;;
21705;SDS011;11014;53.076;18.208;2022-10-16T14:39:04;8.20;;;7.03;;
21705;SDS011;11014;53.076;18.208;2022-10-16T14:41:47;7.93;;;6.88;;
21705;SDS011;11014;53.076;18.208;2022-10-16T14:44:17;7.63;;;6.80;;
21705;SDS011;11014;53.076;18.208;2022-10-16T14:46:48;9.00;;;8.07;;
21705;SDS011;11014;53.076;18.208;2022-10-16T14:49:17;12.93;;;9.93;;
21705;SDS011;11014;53.076;18.208;2022-10-16T14:51:56;15.05;;;9.43;;
21705;SDS011;11014;53.076;18.208;2022-10-16T14:54:26;12.13;;;8.90;;
21705;SDS011;11014;53.076;18.208;2022-10-16T14:56:56;9.65;;;7.50;;
21705;SDS011;11014;53.076;18.208;2022-10-16T15:05:14;8.00;;;7.20;;
21705;SDS011;11014;53.076;18.208;2022-10-16T15:07:45;7.85;;;7.05;;
21705;SDS011;11014;53.076;18.208;2022-10-16T15:10:15;9.13;;;7.90;;
21705;SDS011;11014;53.076;18.208;2022-10-16T15:13:24;12.63;;;9.18;;
21705;SDS011;11014;53.076;18.208;2022-10-16T15:15:57;13.60;;;9.27;;
21705;SDS011;11014;53.076;18.208;2022-10-16T15:18:46;11.80;;;8.70;;
21705;SDS011;11014;53.076;18.208;2022-10-16T15:21:24;13.18;;;8.80;;
21705;SDS011;11014;53.076;18.208;2022-10-16T15:23:55;9.35;;;8.35;;
21705;SDS011;11014;53.076;18.208;2022-10-16T15:26:25;12.18;;;9.25;;
21705;SDS011;11014;53.076;18.208;2022-10-16T15:28:54;11.35;;;8.93;;
21705;SDS011;11014;53.076;18.208;2022-10-16T15:31:23;20.83;;;12.30;;
21705;SDS011;11014;53.076;18.208;2022-10-16T15:33:53;28.88;;;17.30;;
21705;SDS011;11014;53.076;18.208;2022-10-16T15:36:27;21.80;;;14.02;;
21705;SDS011;11014;53.076;18.208;2022-10-16T15:38:56;17.45;;;11.20;;
21705;SDS011;11014;53.076;18.208;2022-10-16T15:41:25;18.08;;;11.95;;
21705;SDS011;11014;53.076;18.208;2022-10-16T15:43:54;13.63;;;10.32;;
21705;SDS011;11014;53.076;18.208;2022-10-16T15:46:24;13.70;;;10.65;;
21705;SDS011;11014;53.076;18.208;2022-10-16T15:48:55;13.23;;;10.98;;
21705;SDS011;11014;53.076;18.208;2022-10-16T15:51:26;14.48;;;11.25;;
21705;SDS011;11014;53.076;18.208;2022-10-16T15:54:01;21.77;;;14.13;;
21705;SDS011;11014;53.076;18.208;2022-10-16T15:56:30;16.95;;;13.18;;
21705;SDS011;11014;53.076;18.208;2022-10-16T15:59:01;17.50;;;12.95;;
21705;SDS011;11014;53.076;18.208;2022-10-16T16:01:33;17.13;;;12.90;;
21705;SDS011;11014;53.076;18.208;2022-10-16T16:04:03;27.65;;;18.52;;
21705;SDS011;11014;53.076;18.208;2022-10-16T16:06:47;22.13;;;18.08;;
21705;SDS011;11014;53.076;18.208;2022-10-16T16:09:16;25.42;;;16.77;;
21705;SDS011;11014;53.076;18.208;2022-10-16T16:11:44;35.25;;;22.48;;
21705;SDS011;11014;53.076;18.208;2022-10-16T16:14:13;47.80;;;28.38;;
21705;SDS011;11014;53.076;18.208;2022-10-16T16:16:42;91.80;;;43.75;;
21705;SDS011;11014;53.076;18.208;2022-10-16T16:19:11;173.75;;;76.68;;
21705;SDS011;11014;53.076;18.208;2022-10-16T16:21:40;139.48;;;61.78;;
21705;SDS011;11014;53.076;18.208;2022-10-16T16:24:27;69.55;;;36.22;;
21705;SDS011;11014;53.076;18.208;2022-10-16T16:26:56;57.13;;;29.90;;
21705;SDS011;11014;53.076;18.208;2022-10-16T16:29:24;44.00;;;24.95;;
21705;SDS011;11014;53.076;18.208;2022-10-16T16:31:53;49.50;;;24.70;;
21705;SDS011;11014;53.076;18.208;2022-10-16T16:34:26;50.25;;;27.40;;
21705;SDS011;11014;53.076;18.208;2022-10-16T16:36:55;42.03;;;24.20;;
21705;SDS011;11014;53.076;18.208;2022-10-16T16:39:24;40.95;;;25.52;;
21705;SDS011;11014;53.076;18.208;2022-10-16T16:41:54;35.35;;;23.27;;
21705;SDS011;11014;53.076;18.208;2022-10-16T16:44:23;36.47;;;23.92;;
21705;SDS011;11014;53.076;18.208;2022-10-16T16:46:52;33.85;;;23.35;;
21705;SDS011;11014;53.076;18.208;2022-10-16T16:49:22;32.65;;;22.75;;
21705;SDS011;11014;53.076;18.208;2022-10-16T16:51:52;37.17;;;24.38;;
21705;SDS011;11014;53.076;18.208;2022-10-16T16:54:20;35.90;;;23.77;;
21705;SDS011;11014;53.076;18.208;2022-10-16T16:57:08;35.78;;;22.17;;
21705;SDS011;11014;53.076;18.208;2022-10-16T16:59:37;38.50;;;23.20;;
21705;SDS011;11014;53.076;18.208;2022-10-16T17:02:06;46.40;;;24.75;;
21705;SDS011;11014;53.076;18.208;2022-10-16T17:04:34;43.40;;;23.20;;
21705;SDS011;11014;53.076;18.208;2022-10-16T17:07:03;42.10;;;24.67;;
21705;SDS011;11014;53.076;18.208;2022-10-16T17:09:32;41.78;;;23.85;;
21705;SDS011;11014;53.076;18.208;2022-10-16T17:12:01;35.95;;;20.58;;
21705;SDS011;11014;53.076;18.208;2022-10-16T17:14:30;33.53;;;22.55;;
21705;SDS011;11014;53.076;18.208;2022-10-16T17:16:58;35.13;;;22.63;;
21705;SDS011;11014;53.076;18.208;2022-10-16T17:19:27;28.80;;;18.35;;
21705;SDS011;11014;53.076;18.208;2022-10-16T17:21:55;36.03;;;22.85;;
21705;SDS011;11014;53.076;18.208;2022-10-16T17:24:24;20.60;;;15.45;;
21705;SDS011;11014;53.076;18.208;2022-10-16T17:26:52;16.52;;;12.90;;
21705;SDS011;11014;53.076;18.208;2022-10-16T17:29:21;17.88;;;14.98;;
21705;SDS011;11014;53.076;18.208;2022-10-16T17:32:02;19.92;;;15.85;;
21705;SDS011;11014;53.076;18.208;2022-10-16T17:34:31;14.93;;;12.45;;
21705;SDS011;11014;53.076;18.208;2022-10-16T17:37:03;17.10;;;12.55;;
21705;SDS011;11014;53.076;18.208;2022-10-16T17:39:32;16.35;;;13.50;;
21705;SDS011;11014;53.076;18.208;2022-10-16T17:44:58;11.48;;;9.68;;
21705;SDS011;11014;53.076;18.208;2022-10-16T17:47:26;11.68;;;9.85;;
21705;SDS011;11014;53.076;18.208;2022-10-16T17:49:56;17.50;;;15.18;;
21705;SDS011;11014;53.076;18.208;2022-10-16T17:52:31;17.63;;;15.18;;